createdAt,value
2018-03-06T00:00:13.171Z,5.26
2018-03-06T00:02:41.834Z,5.23
2018-03-06T00:05:10.534Z,5.21
2018-03-06T00:07:39.111Z,5.22
2018-03-06T00:10:07.926Z,5.20
2018-03-06T00:12:36.781Z,5.21
2018-03-06T00:15:05.420Z,5.18
2018-03-06T00:17:33.997Z,5.11
2018-03-06T00:20:02.494Z,5.10
2018-03-06T00:22:30.997Z,5.08
2018-03-06T00:24:59.502Z,5.07
2018-03-06T00:27:28.797Z,5.07
2018-03-06T00:29:57.400Z,5.06
2018-03-06T00:32:25.875Z,5.10
2018-03-06T00:34:55.453Z,5.10
2018-03-06T00:37:24.759Z,5.12
2018-03-06T00:39:53.336Z,5.11
2018-03-06T00:42:21.889Z,5.09
2018-03-06T00:44:50.337Z,5.06
2018-03-06T00:47:18.802Z,5.11
2018-03-06T00:49:48.491Z,5.11
2018-03-06T00:52:16.968Z,5.00
2018-03-06T00:54:45.561Z,4.92
2018-03-06T00:57:14.099Z,4.96
2018-03-06T00:59:42.551Z,4.96
2018-03-06T01:02:11.063Z,4.94
2018-03-06T01:04:39.719Z,4.92
2018-03-06T01:07:08.188Z,4.89
2018-03-06T01:09:36.733Z,4.87
2018-03-06T01:12:05.275Z,4.85
2018-03-06T01:14:33.778Z,4.82
2018-03-06T01:17:03.061Z,4.82
2018-03-06T01:19:31.598Z,4.81
2018-03-06T01:22:00.059Z,4.85
2018-03-06T01:24:28.577Z,4.80
2018-03-06T01:26:57.243Z,4.77
2018-03-06T01:29:25.786Z,4.84
2018-03-06T01:31:54.344Z,4.78
2018-03-06T01:34:22.923Z,4.84
2018-03-06T01:36:51.371Z,4.89
2018-03-06T01:39:19.942Z,4.87
2018-03-06T01:41:48.523Z,4.88
2018-03-06T01:44:17.017Z,4.85
2018-03-06T01:46:45.582Z,4.80
2018-03-06T01:49:15.309Z,4.84
2018-03-06T01:51:55.674Z,4.77
2018-03-06T01:54:24.484Z,4.74
2018-03-06T01:56:52.990Z,4.77
2018-03-06T01:59:21.434Z,4.76
2018-03-06T02:01:50.796Z,4.72
2018-03-06T02:04:19.394Z,4.72
2018-03-06T02:06:47.874Z,4.60
2018-03-06T02:09:16.671Z,4.43
2018-03-06T02:11:45.253Z,4.31
2018-03-06T02:14:13.833Z,4.22
2018-03-06T02:16:42.629Z,4.20
2018-03-06T02:19:11.202Z,4.13
2018-03-06T02:21:39.992Z,4.08
2018-03-06T02:24:09.003Z,4.06
2018-03-06T02:26:37.576Z,4.03
2018-03-06T02:29:06.148Z,4.00
2018-03-06T02:31:35.712Z,4.01
2018-03-06T02:34:04.213Z,3.86
2018-03-06T02:36:32.696Z,3.97
2018-03-06T02:39:01.203Z,3.99
2018-03-06T02:41:29.683Z,3.94
2018-03-06T02:43:58.200Z,3.95
2018-03-06T02:46:27.525Z,3.97
2018-03-06T02:48:56.000Z,3.88
2018-03-06T02:51:24.525Z,3.87
2018-03-06T02:53:53.904Z,3.84
2018-03-06T02:56:22.392Z,3.88
2018-03-06T02:58:50.902Z,3.90
2018-03-06T03:01:19.801Z,3.83
2018-03-06T03:03:48.320Z,3.84
2018-03-06T03:06:17.284Z,3.79
2018-03-06T03:08:46.006Z,3.79
2018-03-06T03:11:14.506Z,3.72
2018-03-06T03:13:43.151Z,3.47
2018-03-06T03:16:11.755Z,3.53
2018-03-06T03:18:40.201Z,3.50
2018-03-06T03:21:08.652Z,3.48
2018-03-06T03:23:37.930Z,3.46
2018-03-06T03:26:06.457Z,3.42
2018-03-06T03:28:34.938Z,3.39
2018-03-06T03:31:03.455Z,3.43
2018-03-06T03:33:32.006Z,3.39
2018-03-06T03:36:00.488Z,3.46
2018-03-06T03:38:28.989Z,3.47
2018-03-06T03:40:57.450Z,3.50
2018-03-06T03:43:25.903Z,3.46
2018-03-06T03:45:54.446Z,3.56
2018-03-06T03:48:23.868Z,3.55
2018-03-06T03:50:52.370Z,3.63
2018-03-06T03:53:20.876Z,3.61
2018-03-06T03:55:50.033Z,3.65
2018-03-06T03:58:18.508Z,3.60
2018-03-06T04:00:47.445Z,3.60
2018-03-06T04:03:15.906Z,3.53
2018-03-06T04:05:44.382Z,3.44
2018-03-06T04:08:13.085Z,3.43
2018-03-06T04:10:41.712Z,3.44
2018-03-06T04:13:10.185Z,3.47
2018-03-06T04:15:38.918Z,3.32
2018-03-06T04:18:07.452Z,3.31
2018-03-06T04:20:36.447Z,3.42
2018-03-06T04:23:05.032Z,3.42
2018-03-06T04:25:37.040Z,3.44
2018-03-06T04:28:06.309Z,3.48
2018-03-06T04:30:34.872Z,3.48
2018-03-06T04:33:03.374Z,3.44
2018-03-06T04:35:31.933Z,3.47
2018-03-06T04:38:00.576Z,3.35
2018-03-06T04:40:29.042Z,3.39
2018-03-06T04:42:58.055Z,3.41
2018-03-06T04:45:26.572Z,3.39
2018-03-06T04:47:56.346Z,3.44
2018-03-06T04:50:25.172Z,3.26
2018-03-06T04:52:53.697Z,3.30
2018-03-06T04:55:22.667Z,3.29
2018-03-06T04:57:51.184Z,3.31
2018-03-06T05:00:19.666Z,3.33
2018-03-06T05:02:48.084Z,3.31
2018-03-06T05:05:16.980Z,3.33
2018-03-06T05:07:45.467Z,3.31
2018-03-06T05:10:14.007Z,3.17
2018-03-06T05:12:43.063Z,3.17
2018-03-06T05:15:11.649Z,3.09
2018-03-06T05:17:40.209Z,3.18
2018-03-06T05:20:08.910Z,3.15
2018-03-06T05:22:37.550Z,3.13
2018-03-06T05:25:06.229Z,3.17
2018-03-06T05:27:35.229Z,3.20
2018-03-06T05:30:03.760Z,3.09
2018-03-06T05:32:32.286Z,3.16
2018-03-06T05:35:00.818Z,3.17
2018-03-06T05:37:29.346Z,3.18
2018-03-06T05:39:57.785Z,3.15
2018-03-06T05:42:26.402Z,3.09
2018-03-06T05:44:54.949Z,3.08
2018-03-06T05:47:23.504Z,3.11
2018-03-06T05:49:52.044Z,3.13
2018-03-06T05:52:20.497Z,3.11
2018-03-06T05:54:48.950Z,3.12
2018-03-06T05:57:17.698Z,3.12
2018-03-06T05:59:46.270Z,3.06
2018-03-06T06:02:15.121Z,3.02
2018-03-06T06:04:43.697Z,3.08
2018-03-06T06:07:12.279Z,3.10
2018-03-06T06:09:40.922Z,3.09
2018-03-06T06:12:11.656Z,3.16
2018-03-06T06:14:40.285Z,3.14
2018-03-06T06:17:08.970Z,3.18
2018-03-06T06:19:37.738Z,3.18
2018-03-06T06:22:06.219Z,3.29
2018-03-06T06:24:34.734Z,3.37
2018-03-06T06:27:03.306Z,3.43
2018-03-06T06:29:31.751Z,3.45
2018-03-06T06:32:00.194Z,3.51
2018-03-06T06:34:28.755Z,3.46
2018-03-06T06:36:57.329Z,3.46
2018-03-06T06:39:25.776Z,3.57
2018-03-06T06:41:54.387Z,3.47
2018-03-06T06:44:22.817Z,3.59
2018-03-06T06:46:51.320Z,3.76
2018-03-06T06:49:20.112Z,3.82
2018-03-06T06:51:48.778Z,3.79
2018-03-06T06:54:17.604Z,3.85
2018-03-06T06:56:47.122Z,3.87
2018-03-06T06:59:15.777Z,3.91
2018-03-06T07:01:44.318Z,3.95
2018-03-06T07:04:14.833Z,3.96
2018-03-06T07:06:43.759Z,4.02
2018-03-06T07:09:12.491Z,4.16
2018-03-06T07:11:41.072Z,4.13
2018-03-06T07:14:09.756Z,4.13
2018-03-06T07:16:38.650Z,4.29
2018-03-06T07:19:07.546Z,4.40
2018-03-06T07:21:36.127Z,4.45
2018-03-06T07:24:04.703Z,4.57
2018-03-06T07:26:33.471Z,4.65
2018-03-06T07:29:02.017Z,4.68
2018-03-06T07:31:30.456Z,4.72
2018-03-06T07:33:59.038Z,4.79
2018-03-06T07:36:27.542Z,4.82
2018-03-06T07:38:55.974Z,4.92
2018-03-06T07:41:24.494Z,4.93
2018-03-06T07:43:52.971Z,5.06
2018-03-06T07:46:21.555Z,5.07
2018-03-06T07:48:50.119Z,5.08
2018-03-06T07:51:19.422Z,5.15
2018-03-06T07:53:47.924Z,5.08
2018-03-06T07:56:17.498Z,5.11
2018-03-06T07:58:46.080Z,5.18
2018-03-06T08:01:14.684Z,5.19
2018-03-06T08:03:45.106Z,5.22
2018-03-06T08:06:13.800Z,5.31
2018-03-06T08:08:42.585Z,5.39
2018-03-06T08:11:11.266Z,5.38
2018-03-06T08:13:39.747Z,5.41
2018-03-06T08:16:08.384Z,5.38
2018-03-06T08:18:37.121Z,5.47
2018-03-06T08:21:05.609Z,5.59
2018-03-06T08:23:34.185Z,5.58
2018-03-06T08:26:02.980Z,5.67
2018-03-06T08:28:31.582Z,5.71
2018-03-06T08:31:00.149Z,5.73
2018-03-06T08:33:29.837Z,5.76
2018-03-06T08:35:58.282Z,5.97
2018-03-06T08:38:26.825Z,6.05
2018-03-06T08:40:55.374Z,6.11
2018-03-06T08:43:23.821Z,6.15
2018-03-06T08:45:52.302Z,6.30
2018-03-06T08:48:20.829Z,6.48
2018-03-06T08:50:49.314Z,6.62
2018-03-06T08:53:17.745Z,6.85
2018-03-06T08:55:46.263Z,7.53
2018-03-06T08:58:14.748Z,8.19
2018-03-06T09:00:43.241Z,9.04
2018-03-06T09:03:12.176Z,10.29
2018-03-06T09:05:40.824Z,10.82
2018-03-06T09:08:09.491Z,10.98
2018-03-06T09:10:38.071Z,11.36
2018-03-06T09:13:06.727Z,11.60
2018-03-06T09:15:35.309Z,11.73
2018-03-06T09:18:04.702Z,11.32
2018-03-06T09:20:33.204Z,10.94
2018-03-06T09:23:01.674Z,11.79
2018-03-06T09:25:31.483Z,11.61
2018-03-06T09:27:59.968Z,10.71
2018-03-06T09:30:28.453Z,11.47
2018-03-06T09:32:56.960Z,11.61
2018-03-06T09:35:25.413Z,11.92
2018-03-06T09:37:53.846Z,11.69
2018-03-06T09:40:22.429Z,12.90
2018-03-06T09:42:50.857Z,13.14
2018-03-06T09:45:19.305Z,13.45
2018-03-06T09:47:48.053Z,14.10
2018-03-06T09:50:16.739Z,14.55
2018-03-06T09:52:45.219Z,14.59
2018-03-06T09:55:13.905Z,14.51
2018-03-06T09:57:42.528Z,14.73
2018-03-06T10:00:11.170Z,13.73
2018-03-06T10:02:39.772Z,13.58
2018-03-06T10:05:08.442Z,12.40
2018-03-06T10:07:37.037Z,12.81
2018-03-06T10:10:05.712Z,12.62
2018-03-06T10:12:34.199Z,12.49
2018-03-06T10:15:02.700Z,13.15
2018-03-06T10:17:31.212Z,12.42
2018-03-06T10:19:59.749Z,12.50
2018-03-06T10:22:28.285Z,12.74
2018-03-06T10:24:57.146Z,12.69
2018-03-06T10:27:27.650Z,13.09
2018-03-06T10:29:56.131Z,13.14
2018-03-06T10:32:24.604Z,13.21
2018-03-06T10:34:53.189Z,13.17
2018-03-06T10:37:21.673Z,13.41
2018-03-06T10:39:50.196Z,13.20
2018-03-06T10:42:18.830Z,12.90
2018-03-06T10:44:47.445Z,13.24
2018-03-06T10:47:15.965Z,14.19
2018-03-06T10:49:44.397Z,14.24
2018-03-06T10:52:13.326Z,14.14
2018-03-06T10:54:41.898Z,14.10
2018-03-06T10:57:10.467Z,13.86
2018-03-06T10:59:38.940Z,12.81
2018-03-06T11:02:07.708Z,12.68
2018-03-06T11:04:36.329Z,11.67
2018-03-06T11:07:04.808Z,12.51
2018-03-06T11:09:33.292Z,12.72
2018-03-06T11:12:01.865Z,12.92
2018-03-06T11:14:32.707Z,12.93
2018-03-06T11:17:01.226Z,12.89
2018-03-06T11:19:29.730Z,12.68
2018-03-06T11:21:58.257Z,12.61
2018-03-06T11:24:28.783Z,12.75
2018-03-06T11:26:57.234Z,12.41
2018-03-06T11:29:25.646Z,12.84
2018-03-06T11:31:54.154Z,12.41
2018-03-06T11:34:22.598Z,12.36
2018-03-06T11:36:51.146Z,12.65
2018-03-06T11:39:19.699Z,12.94
2018-03-06T11:41:48.245Z,12.90
2018-03-06T11:44:16.723Z,13.08
2018-03-06T11:46:45.247Z,12.74
2018-03-06T11:49:13.895Z,12.91
2018-03-06T11:51:42.654Z,12.37
2018-03-06T11:54:12.204Z,12.16
2018-03-06T11:56:40.769Z,12.32
2018-03-06T11:59:09.550Z,12.82
2018-03-06T12:01:38.238Z,12.67
2018-03-06T12:04:06.875Z,12.49
2018-03-06T12:06:36.039Z,13.01
2018-03-06T12:09:04.603Z,13.07
2018-03-06T12:11:33.060Z,12.99
2018-03-06T12:14:01.559Z,12.89
2018-03-06T12:16:30.116Z,12.84
2018-03-06T12:18:59.448Z,12.57
2018-03-06T12:21:28.491Z,11.66
2018-03-06T12:23:57.050Z,11.91
2018-03-06T12:26:25.592Z,12.47
2018-03-06T12:32:05.459Z,12.11
2018-03-06T12:34:35.476Z,11.97
2018-03-06T12:37:09.755Z,12.13
2018-03-06T12:39:39.018Z,11.98
2018-03-06T12:42:07.678Z,11.93
2018-03-06T12:44:36.197Z,11.45
2018-03-06T12:47:25.427Z,11.34
2018-03-06T12:49:58.921Z,11.30
2018-03-06T12:52:28.323Z,11.83
2018-03-06T12:54:56.803Z,12.06
2018-03-06T12:57:25.261Z,11.93
2018-03-06T12:59:56.458Z,11.92
2018-03-06T13:02:25.066Z,11.89
2018-03-06T13:04:53.599Z,12.17
2018-03-06T13:07:24.172Z,11.69
2018-03-06T13:09:57.964Z,10.63
2018-03-06T13:12:26.849Z,10.28
2018-03-06T13:14:56.463Z,10.20
2018-03-06T13:17:26.507Z,10.18
2018-03-06T13:20:06.087Z,9.89
2018-03-06T13:22:41.843Z,9.82
2018-03-06T13:25:10.420Z,9.80
2018-03-06T13:28:01.839Z,9.76
2018-03-06T13:33:30.318Z,9.99
2018-03-06T13:39:30.912Z,9.87
2018-03-06T13:41:59.505Z,9.93
2018-03-06T13:47:33.241Z,9.72
2018-03-06T13:50:02.201Z,9.72
2018-03-06T13:52:32.253Z,9.67
2018-03-06T13:57:58.356Z,9.31
2018-03-06T14:00:30.243Z,9.21
2018-03-06T14:03:00.643Z,9.33
2018-03-06T14:05:29.562Z,9.28
2018-03-06T14:08:04.182Z,9.19
2018-03-06T14:10:38.579Z,8.87
2018-03-06T14:13:08.035Z,9.03
2018-03-06T14:15:37.035Z,9.11
2018-03-06T14:18:06.336Z,9.17
2018-03-06T14:20:36.805Z,9.07
2018-03-06T14:23:05.335Z,8.99
2018-03-06T14:25:33.744Z,8.97
2018-03-06T14:28:04.294Z,9.04
2018-03-06T14:30:32.720Z,8.79
2018-03-06T14:33:01.161Z,9.02
2018-03-06T14:35:29.868Z,8.79
2018-03-06T14:37:58.328Z,8.74
2018-03-06T14:40:27.320Z,8.62
2018-03-06T14:42:59.389Z,8.84
2018-03-06T14:45:28.272Z,8.83
2018-03-06T14:47:56.958Z,8.69
2018-03-06T14:50:25.417Z,8.68
2018-03-06T14:52:53.833Z,8.78
2018-03-06T14:55:22.331Z,8.78
2018-03-06T14:57:51.605Z,8.81
2018-03-06T15:00:20.220Z,8.76
2018-03-06T15:02:48.729Z,8.92
2018-03-06T15:05:18.553Z,8.92
2018-03-06T15:07:47.070Z,8.65
2018-03-06T15:10:15.750Z,8.61
2018-03-06T15:12:45.017Z,8.44
2018-03-06T15:15:13.949Z,8.44
2018-03-06T15:17:42.637Z,8.24
2018-03-06T15:20:11.891Z,8.08
2018-03-06T15:22:40.506Z,8.01
2018-03-06T15:25:10.066Z,7.89
2018-03-06T15:27:39.137Z,7.89
2018-03-06T15:30:07.755Z,7.88
2018-03-06T15:32:38.040Z,7.78
2018-03-06T15:35:07.348Z,7.73
2018-03-06T15:37:38.928Z,7.66
2018-03-06T15:40:09.469Z,7.65
2018-03-06T15:42:38.257Z,7.42
2018-03-06T15:45:07.444Z,7.41
2018-03-06T15:47:36.069Z,7.42
2018-03-06T15:50:04.757Z,7.20
2018-03-06T15:52:33.354Z,7.17
2018-03-06T15:55:02.692Z,7.07
2018-03-06T15:57:31.176Z,7.16
2018-03-06T16:00:00.843Z,6.98
2018-03-06T16:02:30.175Z,7.01
2018-03-06T16:04:58.819Z,7.03
2018-03-06T16:07:27.404Z,7.02
2018-03-06T16:09:55.979Z,6.94
2018-03-06T16:12:24.539Z,6.91
2018-03-06T16:14:53.812Z,6.80
2018-03-06T16:17:22.823Z,6.77
2018-03-06T16:19:51.398Z,6.71
2018-03-06T16:22:19.984Z,6.48
2018-03-06T16:24:49.673Z,6.57
2018-03-06T16:27:18.367Z,6.36
2018-03-06T16:29:46.976Z,6.46
2018-03-06T16:32:15.853Z,6.36
2018-03-06T16:34:44.729Z,6.23
2018-03-06T16:37:14.660Z,6.12
2018-03-06T16:39:43.339Z,6.03
2018-03-06T16:42:12.237Z,6.07
2018-03-06T16:44:44.037Z,6.02
2018-03-06T16:47:13.969Z,5.96
2018-03-06T16:49:43.027Z,5.85
2018-03-06T16:52:15.215Z,5.84
2018-03-06T16:54:44.208Z,5.58
2018-03-06T16:57:15.635Z,5.58
2018-03-06T16:59:47.058Z,5.60
2018-03-06T17:02:16.354Z,5.62
2018-03-06T17:04:45.725Z,5.58
2018-03-06T17:07:16.205Z,5.36
2018-03-06T17:09:45.966Z,5.30
2018-03-06T17:12:15.813Z,5.11
2018-03-06T17:14:44.931Z,5.12
2018-03-06T17:17:14.538Z,4.96
2018-03-06T17:19:43.100Z,4.90
2018-03-06T17:22:11.658Z,4.93
2018-03-06T17:24:42.218Z,4.84
2018-03-06T17:27:13.837Z,4.67
2018-03-06T17:29:44.473Z,4.73
2018-03-06T17:32:14.312Z,4.75
2018-03-06T17:34:43.574Z,4.73
2018-03-06T17:37:12.464Z,4.74
2018-03-06T17:39:42.697Z,4.63
2018-03-06T17:42:13.656Z,4.67
2018-03-06T17:44:42.633Z,4.58
2018-03-06T17:47:11.647Z,4.55
2018-03-06T17:49:43.196Z,4.48
2018-03-06T17:52:11.855Z,4.43
2018-03-06T17:54:43.518Z,4.52
2018-03-06T17:57:13.277Z,4.46
2018-03-06T17:59:43.446Z,4.43
2018-03-06T18:02:15.333Z,4.33
2018-03-06T18:04:44.085Z,4.18
2018-03-06T18:07:15.098Z,4.12
2018-03-06T18:09:46.743Z,4.17
2018-03-06T18:12:16.486Z,4.07
2018-03-06T18:14:45.096Z,3.98
2018-03-06T18:17:15.610Z,3.90
2018-03-06T18:19:46.682Z,3.78
2018-03-06T18:22:19.873Z,3.66
2018-03-06T18:24:49.026Z,3.78
2018-03-06T18:27:17.634Z,3.62
2018-03-06T18:29:46.505Z,3.55
2018-03-06T18:32:17.183Z,3.56
2018-03-06T18:34:46.226Z,3.61
2018-03-06T18:37:16.562Z,3.62
2018-03-06T18:39:45.590Z,3.60
2018-03-06T18:42:14.100Z,3.48
2018-03-06T18:44:49.201Z,3.52
2018-03-06T18:47:21.687Z,3.43
2018-03-06T19:32:11.089Z,2.93
2018-03-06T19:34:39.733Z,2.91
2018-03-06T19:37:08.493Z,2.97
2018-03-06T19:39:37.574Z,3.01
2018-03-06T19:42:06.062Z,3.04
2018-03-06T19:44:34.599Z,3.06
2018-03-06T19:47:03.591Z,3.10
2018-03-06T19:49:33.273Z,2.95
2018-03-06T19:52:01.752Z,2.99
2018-03-06T19:54:30.749Z,2.99
2018-03-06T19:56:59.458Z,2.98
2018-03-06T19:59:27.910Z,2.97
2018-03-06T20:01:56.422Z,2.97
2018-03-06T20:04:25.135Z,2.86
2018-03-06T20:06:54.163Z,2.92
2018-03-06T20:09:23.656Z,2.90
2018-03-06T20:11:52.315Z,3.00
2018-03-06T20:14:27.502Z,3.08
2018-03-06T20:16:56.087Z,3.09
2018-03-06T20:19:30.291Z,2.98
2018-03-06T20:21:59.869Z,3.13
2018-03-06T20:24:33.945Z,2.91
2018-03-06T20:27:02.496Z,2.90
2018-03-06T20:29:31.050Z,2.94
2018-03-06T20:32:06.447Z,2.92
2018-03-06T20:34:41.994Z,3.07
2018-03-06T20:37:12.824Z,3.03
2018-03-06T20:39:47.531Z,3.13
2018-03-06T20:42:18.681Z,3.02
2018-03-06T20:44:58.117Z,2.88
2018-03-06T20:47:28.727Z,2.87
2018-03-06T20:49:58.474Z,2.94
2018-03-06T20:52:31.385Z,3.00
2018-03-06T20:55:06.278Z,2.93
2018-03-06T20:57:35.198Z,2.94
2018-03-06T21:00:14.205Z,2.80
2018-03-06T21:02:48.114Z,2.93
2018-03-06T21:05:18.565Z,2.84
2018-03-06T21:07:48.164Z,2.86
2018-03-06T21:10:17.319Z,2.83
2018-03-06T21:12:46.135Z,2.74
2018-03-06T21:15:15.499Z,2.82
2018-03-06T21:17:47.769Z,2.82
2018-03-06T21:20:17.001Z,2.71
2018-03-06T21:22:51.329Z,2.63
2018-03-06T21:25:20.208Z,2.70
2018-03-06T21:27:49.000Z,2.81
2018-03-06T21:30:17.780Z,2.80
2018-03-06T21:32:48.232Z,2.85
2018-03-06T21:35:17.177Z,2.79
2018-03-06T21:37:48.592Z,2.86
2018-03-06T21:40:17.303Z,2.81
2018-03-06T21:42:51.279Z,2.76
2018-03-06T21:45:20.194Z,2.83
2018-03-06T21:47:48.776Z,2.83
2018-03-06T21:50:18.408Z,2.93
2018-03-06T21:52:47.757Z,2.85
2018-03-06T21:55:16.822Z,2.87
2018-03-06T21:57:47.060Z,2.75
2018-03-06T22:00:18.473Z,2.80
2018-03-06T22:02:49.004Z,2.82
2018-03-06T22:05:18.531Z,2.83
2018-03-06T22:07:47.176Z,2.87
2018-03-06T22:10:17.127Z,2.99
2018-03-06T22:12:46.705Z,3.07
2018-03-06T22:15:17.858Z,2.99
2018-03-06T22:17:46.771Z,3.00
2018-03-06T22:20:16.003Z,2.89
2018-03-06T22:22:45.266Z,2.94
2018-03-06T22:25:14.729Z,2.78
2018-03-06T22:27:46.485Z,2.78
2018-03-06T22:30:15.480Z,2.91
2018-03-06T22:32:44.087Z,2.68
2018-03-06T22:35:12.875Z,2.73
2018-03-06T22:37:41.351Z,2.76
2018-03-06T22:40:10.633Z,2.69
2018-03-06T22:42:41.729Z,2.74
2018-03-06T22:45:10.276Z,2.83
2018-03-06T22:47:38.850Z,2.67
2018-03-06T22:50:07.630Z,2.78
2018-03-06T22:52:36.111Z,2.88
2018-03-06T22:55:05.108Z,2.81
2018-03-06T22:57:34.358Z,2.68
2018-03-06T23:00:03.963Z,2.73
2018-03-06T23:02:33.289Z,2.73
2018-03-06T23:05:02.630Z,2.78
2018-03-06T23:07:31.198Z,2.73
2018-03-06T23:09:59.720Z,2.87
2018-03-06T23:12:28.370Z,2.85
2018-03-06T23:14:56.836Z,2.81
2018-03-06T23:17:25.437Z,2.77
2018-03-06T23:19:54.467Z,2.66
2018-03-06T23:22:23.000Z,2.78
2018-03-06T23:24:51.484Z,2.94
2018-03-06T23:27:19.969Z,2.80
2018-03-06T23:29:48.474Z,2.86
2018-03-06T23:32:17.313Z,2.79
2018-03-06T23:34:46.584Z,2.98
2018-03-06T23:37:15.020Z,2.83
2018-03-06T23:39:43.501Z,2.84
2018-03-06T23:42:12.015Z,2.72
2018-03-06T23:44:40.774Z,2.64
2018-03-06T23:47:09.460Z,2.61
2018-03-06T23:49:38.102Z,2.72
2018-03-06T23:52:06.798Z,2.78
2018-03-06T23:54:35.411Z,2.71
2018-03-06T23:57:03.990Z,2.71
2018-03-06T23:59:33.192Z,2.72
